Time,TemperatureF,DewpointF,PressureIn,WindDirection,WindDirectionDegrees,WindSpeedMPH,WindSpeedGustMPH,Humidity,HourlyPrecipIn,Conditions,Clouds,dailyrainin,SolarRadiationWatts/m^2,SoftwareType,DateUTC
2013-05-05 00:11:00,74.4,-99.9,29.82,NE,36,1.0,2.0,0,0.00,,,0.00,0,weatherlink.com 1.10,2013-05-05 04:11:00,
2013-05-05 00:26:00,74.6,-99.9,29.82,NE,36,1.0,2.0,0,0.00,,,0.00,0,weatherlink.com 1.10,2013-05-05 04:26:00,
2013-05-05 00:41:00,74.6,-99.9,29.81,NE,36,0.0,2.0,0,0.00,,,0.00,0,weatherlink.com 1.10,2013-05-05 04:41:00,
2013-05-05 00:56:00,74.6,-99.9,29.82,NE,36,0.0,2.0,0,0.00,,,0.00,0,weatherlink.com 1.10,2013-05-05 04:56:00,
2013-05-05 01:11:00,74.5,-99.9,29.81,NE,36,0.0,2.0,0,0.00,,,0.00,0,weatherlink.com 1.10,2013-05-05 05:11:00,
2013-05-05 01:26:00,74.6,-99.9,29.80,NE,36,0.0,0.0,0,0.00,,,0.00,0,weatherlink.com 1.10,2013-05-05 05:26:00,
2013-05-05 01:41:00,74.5,-99.9,29.78,NE,36,0.0,2.0,0,0.00,,,0.00,0,weatherlink.com 1.10,2013-05-05 05:41:00,
2013-05-05 01:56:00,73.9,-99.9,29.77,NE,36,0.0,2.0,0,0.00,,,0.00,0,weatherlink.com 1.10,2013-05-05 05:56:00,
2013-05-05 02:11:00,73.5,-99.9,29.78,WSW,241,3.0,5.0,0,0.00,,,0.00,0,weatherlink.com 1.10,2013-05-05 06:11:00,
2013-05-05 02:26:00,73.3,-99.9,29.77,WSW,241,0.0,3.0,0,0.00,,,0.00,0,weatherlink.com 1.10,2013-05-05 06:26:00,
2013-05-05 02:41:00,73.9,-99.9,29.77,WSW,242,2.0,3.0,0,0.00,,,0.00,0,weatherlink.com 1.10,2013-05-05 06:41:00,
2013-05-05 02:57:00,74.9,-99.9,29.77,WSW,241,0.0,4.0,0,0.00,,,0.00,0,weatherlink.com 1.10,2013-05-05 06:57:00,
2013-05-05 03:12:00,74.1,-99.9,29.77,WSW,243,1.0,4.0,0,0.00,,,0.00,0,weatherlink.com 1.10,2013-05-05 07:12:00,
2013-05-05 03:27:00,74.0,-99.9,29.76,WSW,243,0.0,1.0,0,0.00,,,0.00,0,weatherlink.com 1.10,2013-05-05 07:27:00,
2013-05-05 03:42:00,73.7,-99.9,29.76,WSW,242,0.0,2.0,0,0.00,,,0.00,0,weatherlink.com 1.10,2013-05-05 07:42:00,
2013-05-05 03:57:00,73.7,-99.9,29.76,WSW,242,3.0,3.0,0,0.00,,,0.00,0,weatherlink.com 1.10,2013-05-05 07:57:00,
2013-05-05 04:12:00,73.3,-99.9,29.76,WSW,243,0.0,0.0,0,0.00,,,0.00,0,weatherlink.com 1.10,2013-05-05 08:12:00,
2013-05-05 04:27:00,73.1,-99.9,29.77,WSW,242,0.0,1.0,0,0.00,,,0.00,0,weatherlink.com 1.10,2013-05-05 08:27:00,
2013-05-05 04:42:00,73.2,-99.9,29.78,WSW,242,0.0,1.0,0,0.00,,,0.00,0,weatherlink.com 1.10,2013-05-05 08:42:00,
2013-05-05 04:57:00,73.3,-99.9,29.78,WSW,242,0.0,1.0,0,0.00,,,0.00,0,weatherlink.com 1.10,2013-05-05 08:57:00,
2013-05-05 05:12:00,73.2,-99.9,29.79,WSW,243,0.0,2.0,0,0.00,,,0.00,0,weatherlink.com 1.10,2013-05-05 09:12:00,
2013-05-05 05:27:00,73.1,-99.9,29.80,WSW,243,2.0,4.0,0,0.00,,,0.00,0,weatherlink.com 1.10,2013-05-05 09:27:00,
2013-05-05 05:42:00,72.9,-99.9,29.80,SE,143,1.0,2.0,0,0.00,,,0.00,0,weatherlink.com 1.10,2013-05-05 09:42:00,
2013-05-05 05:57:00,74.7,-99.9,29.80,SW,223,0.0,5.0,0,0.00,,,0.00,5,weatherlink.com 1.10,2013-05-05 09:57:00,
2013-05-05 06:13:00,73.7,-99.9,29.81,ESE,107,0.0,3.0,0,0.00,,,0.00,12,weatherlink.com 1.10,2013-05-05 10:13:00,
2013-05-05 06:28:00,73.0,-99.9,29.81,NE,39,0.0,3.0,0,0.00,,,0.00,35,weatherlink.com 1.10,2013-05-05 10:28:00,
2013-05-05 06:43:00,73.3,-99.9,29.82,East,98,1.0,2.0,0,0.00,,,0.00,88,weatherlink.com 1.10,2013-05-05 10:43:00,
2013-05-05 06:58:00,74.0,-99.9,29.83,East,98,0.0,2.0,0,0.00,,,0.00,142,weatherlink.com 1.10,2013-05-05 10:58:00,
2013-05-05 07:13:00,75.4,-99.9,29.84,East,98,0.0,2.0,0,0.00,,,0.00,199,weatherlink.com 1.10,2013-05-05 11:13:00,
2013-05-05 07:28:00,75.3,-99.9,29.84,East,89,0.0,1.0,0,0.00,,,0.00,260,weatherlink.com 1.10,2013-05-05 11:28:00,
2013-05-05 07:43:00,76.2,-99.9,29.84,East,88,0.0,2.0,0,0.00,,,0.00,323,weatherlink.com 1.10,2013-05-05 11:43:00,
2013-05-05 07:58:00,77.4,-99.9,29.85,East,89,0.0,1.0,0,0.00,,,0.00,438,weatherlink.com 1.10,2013-05-05 11:58:00,
2013-05-05 08:13:00,77.3,-99.9,29.86,NNW,338,0.0,3.0,0,0.00,,,0.00,243,weatherlink.com 1.10,2013-05-05 12:13:00,
2013-05-05 08:28:00,77.8,-99.9,29.85,North,350,2.0,3.0,0,0.00,,,0.00,137,weatherlink.com 1.10,2013-05-05 12:28:00,
2013-05-05 08:43:00,77.5,-99.9,29.86,North,349,0.0,3.0,0,0.00,,,0.00,499,weatherlink.com 1.10,2013-05-05 12:43:00,
2013-05-05 08:58:00,78.0,-99.9,29.86,North,349,0.0,0.0,0,0.00,,,0.00,543,weatherlink.com 1.10,2013-05-05 12:58:00,
2013-05-05 09:13:00,79.8,-99.9,29.86,North,349,0.0,0.0,0,0.00,,,0.00,649,weatherlink.com 1.10,2013-05-05 13:13:00,
2013-05-05 09:28:00,82.5,-99.9,29.86,SW,232,0.0,2.0,0,0.00,,,0.00,153,weatherlink.com 1.10,2013-05-05 13:28:00,
2013-05-05 09:44:00,82.7,-99.9,29.86,SE,140,1.0,4.0,0,0.00,,,0.00,397,weatherlink.com 1.10,2013-05-05 13:44:00,
2013-05-05 09:59:00,82.6,-99.9,29.86,SE,144,1.0,6.0,0,0.00,,,0.00,287,weatherlink.com 1.10,2013-05-05 13:59:00,
2013-05-05 10:14:00,83.9,-99.9,29.86,ESE,108,5.0,9.0,0,0.00,,,0.00,918,weatherlink.com 1.10,2013-05-05 14:14:00,
2013-05-05 10:29:00,84.1,-99.9,29.85,SSE,162,2.0,9.0,0,0.00,,,0.00,946,weatherlink.com 1.10,2013-05-05 14:29:00,
2013-05-05 10:44:00,84.5,-99.9,29.85,South,186,0.0,9.0,0,0.00,,,0.00,649,weatherlink.com 1.10,2013-05-05 14:44:00,
2013-05-05 10:59:00,87.5,-99.9,29.85,SE,137,1.0,5.0,0,0.00,,,0.00,315,weatherlink.com 1.10,2013-05-05 14:59:00,
2013-05-05 11:14:00,86.7,-99.9,29.85,South,169,0.0,10.0,0,0.00,,,0.00,367,weatherlink.com 1.10,2013-05-05 15:14:00,
2013-05-05 11:29:00,86.6,-99.9,29.85,SSW,211,7.0,12.0,0,0.00,,,0.00,1023,weatherlink.com 1.10,2013-05-05 15:29:00,
2013-05-05 11:44:00,87.2,-99.9,29.85,SSW,209,2.0,12.0,0,0.00,,,0.00,1069,weatherlink.com 1.10,2013-05-05 15:44:00,
2013-05-05 11:59:00,87.2,-99.9,29.84,WSW,253,5.0,9.0,0,0.00,,,0.00,1056,weatherlink.com 1.10,2013-05-05 15:59:00,
2013-05-05 12:14:00,89.1,-99.9,29.84,SE,145,6.0,13.0,0,0.00,,,0.00,404,weatherlink.com 1.10,2013-05-05 16:14:00,
2013-05-05 12:29:00,88.1,-99.9,29.84,SW,223,0.0,9.0,0,0.00,,,0.00,960,weatherlink.com 1.10,2013-05-05 16:29:00,
2013-05-05 12:44:00,86.8,-99.9,29.84,WSW,252,4.0,11.0,0,0.00,,,0.00,339,weatherlink.com 1.10,2013-05-05 16:44:00,
2013-05-05 12:59:00,89.6,-99.9,29.83,WSW,253,7.0,9.0,0,0.00,,,0.00,1067,weatherlink.com 1.10,2013-05-05 16:59:00,
2013-05-05 13:15:00,89.1,-99.9,29.83,SW,234,7.0,11.0,0,0.00,,,0.00,519,weatherlink.com 1.10,2013-05-05 17:15:00,
2013-05-05 13:30:00,89.1,-99.9,29.83,WSW,237,3.0,14.0,0,0.00,,,0.00,1143,weatherlink.com 1.10,2013-05-05 17:30:00,
2013-05-05 13:45:00,90.3,-99.9,29.82,SW,215,11.0,14.0,0,0.00,,,0.00,1013,weatherlink.com 1.10,2013-05-05 17:45:00,
2013-05-05 14:00:00,87.8,-99.9,29.82,West,269,3.0,12.0,0,0.00,,,0.00,294,weatherlink.com 1.10,2013-05-05 18:00:00,
2013-05-05 14:15:00,87.4,-99.9,29.82,WSW,250,2.0,13.0,0,0.00,,,0.00,325,weatherlink.com 1.10,2013-05-05 18:15:00,
2013-05-05 14:30:00,90.1,-99.9,29.81,SSE,166,7.0,12.0,0,0.00,,,0.00,1137,weatherlink.com 1.10,2013-05-05 18:30:00,
2013-05-05 14:45:00,88.0,-99.9,29.82,WSW,241,2.0,13.0,0,0.00,,,0.00,345,weatherlink.com 1.10,2013-05-05 18:45:00,
2013-05-05 15:00:00,83.3,-99.9,29.82,NNE,12,0.0,11.0,0,0.00,,,0.00,130,weatherlink.com 1.10,2013-05-05 19:00:00,
2013-05-05 15:15:00,82.9,-99.9,29.82,NE,51,0.0,6.0,0,0.00,,,0.00,311,weatherlink.com 1.10,2013-05-05 19:15:00,
2013-05-05 15:30:00,81.2,-99.9,29.82,NW,310,6.0,9.0,0,0.00,,,0.00,223,weatherlink.com 1.10,2013-05-05 19:30:00,
2013-05-05 15:45:00,79.2,-99.9,29.82,NW,315,0.0,9.0,0,0.00,,,0.00,139,weatherlink.com 1.10,2013-05-05 19:45:00,
2013-05-05 16:00:00,78.5,-99.9,29.83,North,350,7.0,9.0,0,0.00,,,0.00,146,weatherlink.com 1.10,2013-05-05 20:00:00,
2013-05-05 16:15:00,78.4,-99.9,29.83,NNW,340,4.0,7.0,0,0.00,,,0.00,213,weatherlink.com 1.10,2013-05-05 20:15:00,
2013-05-05 16:31:00,78.2,-99.9,29.83,NNW,338,2.0,9.0,0,0.00,,,0.00,285,weatherlink.com 1.10,2013-05-05 20:31:00,
2013-05-05 16:46:00,78.4,-99.9,29.83,NNE,22,4.0,5.0,0,0.00,,,0.00,125,weatherlink.com 1.10,2013-05-05 20:46:00,
2013-05-05 17:01:00,78.4,-99.9,29.83,NE,51,2.0,5.0,0,0.00,,,0.00,91,weatherlink.com 1.10,2013-05-05 21:01:00,
2013-05-05 17:16:00,78.4,-99.9,29.83,NE,51,0.0,2.0,0,0.00,,,0.00,44,weatherlink.com 1.10,2013-05-05 21:16:00,
2013-05-05 17:31:00,78.2,-99.9,29.84,NNE,24,2.0,6.0,0,0.00,,,0.00,53,weatherlink.com 1.10,2013-05-05 21:31:00,
2013-05-05 17:46:00,78.0,-99.9,29.84,NE,46,0.0,7.0,0,0.00,,,0.00,18,weatherlink.com 1.10,2013-05-05 21:46:00,
2013-05-05 18:01:00,77.9,-99.9,29.84,NE,44,0.0,3.0,0,0.00,,,0.00,7,weatherlink.com 1.10,2013-05-05 22:01:00,
2013-05-05 18:16:00,77.5,-99.9,29.85,NNW,348,0.0,10.0,0,0.00,,,0.00,7,weatherlink.com 1.10,2013-05-05 22:16:00,
2013-05-05 18:31:00,77.0,-99.9,29.85,NW,320,0.0,4.0,0,0.01,,,0.01,9,weatherlink.com 1.10,2013-05-05 22:31:00,
2013-05-05 18:46:00,76.5,-99.9,29.86,NW,320,1.0,3.0,0,0.01,,,0.01,0,weatherlink.com 1.10,2013-05-05 22:46:00,
2013-05-05 19:01:00,76.6,-99.9,29.86,West,265,1.0,4.0,0,0.01,,,0.01,0,weatherlink.com 1.10,2013-05-05 23:01:00,
2013-05-05 19:16:00,76.2,-99.9,29.86,West,265,2.0,4.0,0,0.01,,,0.01,0,weatherlink.com 1.10,2013-05-05 23:16:00,
2013-05-05 19:31:00,76.2,-99.9,29.87,West,265,0.0,4.0,0,0.00,,,0.01,0,weatherlink.com 1.10,2013-05-05 23:31:00,
2013-05-05 19:46:00,76.1,-99.9,29.87,West,265,2.0,5.0,0,0.00,,,0.01,0,weatherlink.com 1.10,2013-05-05 23:46:00,
2013-05-05 20:02:00,76.0,-99.9,29.88,SW,216,2.0,6.0,0,0.00,,,0.01,0,weatherlink.com 1.10,2013-05-06 00:02:00,
2013-05-05 20:17:00,76.0,-99.9,29.89,SW,216,1.0,4.0,0,0.00,,,0.01,0,weatherlink.com 1.10,2013-05-06 00:17:00,
2013-05-05 20:32:00,76.2,-99.9,29.89,SW,216,1.0,3.0,0,0.00,,,0.01,0,weatherlink.com 1.10,2013-05-06 00:32:00,
2013-05-05 20:47:00,76.0,-99.9,29.89,SW,216,2.0,4.0,0,0.00,,,0.01,0,weatherlink.com 1.10,2013-05-06 00:47:00,
2013-05-05 21:02:00,76.2,-99.9,29.90,SW,216,1.0,2.0,0,0.00,,,0.01,0,weatherlink.com 1.10,2013-05-06 01:02:00,
2013-05-05 21:17:00,76.3,-99.9,29.90,SW,216,2.0,3.0,0,0.00,,,0.01,0,weatherlink.com 1.10,2013-05-06 01:17:00,
2013-05-05 21:32:00,76.2,-99.9,29.90,SW,216,0.0,1.0,0,0.00,,,0.01,0,weatherlink.com 1.10,2013-05-06 01:32:00,
2013-05-05 21:47:00,76.0,-99.9,29.90,SW,216,0.0,0.0,0,0.00,,,0.01,0,weatherlink.com 1.10,2013-05-06 01:47:00,
2013-05-05 22:02:00,76.0,-99.9,29.91,SW,216,0.0,1.0,0,0.00,,,0.01,0,weatherlink.com 1.10,2013-05-06 02:02:00,
2013-05-05 22:17:00,76.0,-99.9,29.90,SW,216,0.0,3.0,0,0.00,,,0.01,0,weatherlink.com 1.10,2013-05-06 02:17:00,
2013-05-05 22:32:00,75.3,-99.9,29.91,SW,216,0.0,3.0,0,0.00,,,0.01,0,weatherlink.com 1.10,2013-05-06 02:32:00,
2013-05-05 22:47:00,74.9,-99.9,29.91,SW,216,0.0,2.0,0,0.00,,,0.01,0,weatherlink.com 1.10,2013-05-06 02:47:00,
2013-05-05 23:02:00,75.0,-99.9,29.91,SW,216,0.0,0.0,0,0.00,,,0.01,0,weatherlink.com 1.10,2013-05-06 03:02:00,
2013-05-05 23:17:00,75.0,-99.9,29.91,SW,216,0.0,2.0,0,0.00,,,0.01,0,weatherlink.com 1.10,2013-05-06 03:17:00,
2013-05-05 23:33:00,74.9,-99.9,29.91,SW,216,0.0,0.0,0,0.00,,,0.01,0,weatherlink.com 1.10,2013-05-06 03:33:00,
2013-05-05 23:48:00,75.0,-99.9,29.91,SW,216,0.0,1.0,0,0.00,,,0.01,0,weatherlink.com 1.10,2013-05-06 03:48:00,